sensor_id;sensor_type;location;lat;lon;timestamp;P1;durP1;ratioP1;P2;durP2;ratioP2
46230;SDS011;31949;51.404;-0.038;2023-11-19T00:00:08;28.27;;;7.13;;
46230;SDS011;31949;51.404;-0.038;2023-11-19T00:02:38;31.63;;;7.25;;
46230;SDS011;31949;51.404;-0.038;2023-11-19T00:05:06;18.33;;;6.10;;
46230;SDS011;31949;51.404;-0.038;2023-11-19T00:07:35;23.45;;;5.72;;
46230;SDS011;31949;51.404;-0.038;2023-11-19T00:10:03;22.55;;;5.30;;
46230;SDS011;31949;51.404;-0.038;2023-11-19T00:12:33;22.38;;;7.38;;
46230;SDS011;31949;51.404;-0.038;2023-11-19T00:15:01;35.50;;;6.60;;
46230;SDS011;31949;51.404;-0.038;2023-11-19T00:17:28;29.38;;;7.57;;
46230;SDS011;31949;51.404;-0.038;2023-11-19T00:19:55;25.55;;;5.80;;
46230;SDS011;31949;51.404;-0.038;2023-11-19T00:22:22;25.38;;;6.03;;
46230;SDS011;31949;51.404;-0.038;2023-11-19T00:24:50;30.23;;;6.30;;
46230;SDS011;31949;51.404;-0.038;2023-11-19T00:27:17;37.85;;;6.90;;
46230;SDS011;31949;51.404;-0.038;2023-11-19T00:29:44;26.67;;;6.70;;
46230;SDS011;31949;51.404;-0.038;2023-11-19T00:32:11;25.38;;;6.72;;
46230;SDS011;31949;51.404;-0.038;2023-11-19T00:34:38;23.67;;;5.88;;
46230;SDS011;31949;51.404;-0.038;2023-11-19T00:37:06;30.15;;;6.38;;
46230;SDS011;31949;51.404;-0.038;2023-11-19T00:39:33;28.17;;;5.65;;
46230;SDS011;31949;51.404;-0.038;2023-11-19T00:42:00;38.30;;;8.80;;
46230;SDS011;31949;51.404;-0.038;2023-11-19T00:44:28;32.42;;;6.80;;
46230;SDS011;31949;51.404;-0.038;2023-11-19T00:46:55;27.50;;;6.53;;
46230;SDS011;31949;51.404;-0.038;2023-11-19T00:49:22;32.70;;;7.10;;
46230;SDS011;31949;51.404;-0.038;2023-11-19T00:51:49;38.13;;;8.48;;
46230;SDS011;31949;51.404;-0.038;2023-11-19T00:54:18;30.00;;;7.45;;
46230;SDS011;31949;51.404;-0.038;2023-11-19T00:56:45;37.08;;;7.25;;
46230;SDS011;31949;51.404;-0.038;2023-11-19T00:59:12;27.40;;;6.85;;
46230;SDS011;31949;51.404;-0.038;2023-11-19T01:01:40;32.78;;;6.68;;
46230;SDS011;31949;51.404;-0.038;2023-11-19T01:04:07;33.25;;;7.88;;
46230;SDS011;31949;51.404;-0.038;2023-11-19T01:06:35;32.65;;;6.53;;
46230;SDS011;31949;51.404;-0.038;2023-11-19T01:09:14;30.30;;;7.43;;
46230;SDS011;31949;51.404;-0.038;2023-11-19T01:11:41;29.02;;;6.97;;
46230;SDS011;31949;51.404;-0.038;2023-11-19T01:14:08;27.65;;;8.32;;
46230;SDS011;31949;51.404;-0.038;2023-11-19T01:16:35;26.10;;;6.43;;
46230;SDS011;31949;51.404;-0.038;2023-11-19T01:19:03;32.13;;;7.03;;
46230;SDS011;31949;51.404;-0.038;2023-11-19T01:21:43;31.92;;;7.47;;
46230;SDS011;31949;51.404;-0.038;2023-11-19T01:24:10;36.38;;;8.60;;
46230;SDS011;31949;51.404;-0.038;2023-11-19T01:26:40;36.10;;;9.30;;
46230;SDS011;31949;51.404;-0.038;2023-11-19T01:29:13;28.95;;;7.43;;
46230;SDS011;31949;51.404;-0.038;2023-11-19T01:31:42;33.58;;;7.70;;
46230;SDS011;31949;51.404;-0.038;2023-11-19T01:34:10;33.17;;;6.53;;
46230;SDS011;31949;51.404;-0.038;2023-11-19T01:36:38;32.83;;;8.00;;
46230;SDS011;31949;51.404;-0.038;2023-11-19T01:39:06;32.22;;;6.68;;
46230;SDS011;31949;51.404;-0.038;2023-11-19T01:41:34;34.80;;;8.60;;
46230;SDS011;31949;51.404;-0.038;2023-11-19T01:44:02;32.40;;;6.35;;
46230;SDS011;31949;51.404;-0.038;2023-11-19T01:46:30;31.83;;;7.40;;
46230;SDS011;31949;51.404;-0.038;2023-11-19T01:48:59;26.33;;;6.63;;
46230;SDS011;31949;51.404;-0.038;2023-11-19T01:51:27;31.88;;;6.22;;
46230;SDS011;31949;51.404;-0.038;2023-11-19T01:53:55;21.25;;;5.45;;
46230;SDS011;31949;51.404;-0.038;2023-11-19T01:56:24;27.75;;;6.78;;
46230;SDS011;31949;51.404;-0.038;2023-11-19T01:58:54;28.17;;;7.20;;
46230;SDS011;31949;51.404;-0.038;2023-11-19T02:01:23;27.50;;;6.70;;
46230;SDS011;31949;51.404;-0.038;2023-11-19T02:03:51;24.70;;;6.65;;
46230;SDS011;31949;51.404;-0.038;2023-11-19T02:06:19;32.97;;;7.22;;
46230;SDS011;31949;51.404;-0.038;2023-11-19T02:08:46;35.55;;;7.03;;
46230;SDS011;31949;51.404;-0.038;2023-11-19T02:11:13;28.15;;;7.07;;
46230;SDS011;31949;51.404;-0.038;2023-11-19T02:13:41;25.63;;;6.65;;
46230;SDS011;31949;51.404;-0.038;2023-11-19T02:16:08;27.30;;;5.97;;
46230;SDS011;31949;51.404;-0.038;2023-11-19T02:18:38;17.83;;;5.57;;
46230;SDS011;31949;51.404;-0.038;2023-11-19T02:21:05;20.52;;;7.45;;
46230;SDS011;31949;51.404;-0.038;2023-11-19T02:23:33;30.35;;;6.47;;
46230;SDS011;31949;51.404;-0.038;2023-11-19T02:28:43;31.33;;;7.00;;
46230;SDS011;31949;51.404;-0.038;2023-11-19T02:31:10;28.52;;;6.95;;
46230;SDS011;31949;51.404;-0.038;2023-11-19T02:33:38;23.85;;;7.28;;
46230;SDS011;31949;51.404;-0.038;2023-11-19T02:36:06;28.23;;;6.22;;
46230;SDS011;31949;51.404;-0.038;2023-11-19T02:38:34;28.80;;;5.80;;
46230;SDS011;31949;51.404;-0.038;2023-11-19T02:41:03;26.27;;;6.28;;
46230;SDS011;31949;51.404;-0.038;2023-11-19T02:43:32;24.20;;;6.38;;
46230;SDS011;31949;51.404;-0.038;2023-11-19T02:46:03;27.88;;;6.30;;
46230;SDS011;31949;51.404;-0.038;2023-11-19T02:48:37;24.45;;;7.07;;
46230;SDS011;31949;51.404;-0.038;2023-11-19T02:51:05;20.70;;;6.20;;
46230;SDS011;31949;51.404;-0.038;2023-11-19T02:53:37;31.43;;;6.73;;
46230;SDS011;31949;51.404;-0.038;2023-11-19T02:56:06;29.75;;;6.38;;
46230;SDS011;31949;51.404;-0.038;2023-11-19T02:58:52;37.90;;;7.40;;
46230;SDS011;31949;51.404;-0.038;2023-11-19T03:01:23;29.15;;;6.18;;
46230;SDS011;31949;51.404;-0.038;2023-11-19T03:03:58;28.45;;;6.28;;
46230;SDS011;31949;51.404;-0.038;2023-11-19T03:06:26;22.75;;;5.13;;
46230;SDS011;31949;51.404;-0.038;2023-11-19T03:08:54;27.83;;;5.50;;
46230;SDS011;31949;51.404;-0.038;2023-11-19T03:11:22;27.05;;;5.70;;
46230;SDS011;31949;51.404;-0.038;2023-11-19T03:13:49;28.95;;;6.63;;
46230;SDS011;31949;51.404;-0.038;2023-11-19T03:16:16;22.70;;;5.80;;
46230;SDS011;31949;51.404;-0.038;2023-11-19T03:18:44;27.50;;;6.65;;
46230;SDS011;31949;51.404;-0.038;2023-11-19T03:21:11;25.52;;;6.72;;
46230;SDS011;31949;51.404;-0.038;2023-11-19T03:23:39;23.63;;;5.88;;
46230;SDS011;31949;51.404;-0.038;2023-11-19T03:26:07;28.73;;;7.25;;
46230;SDS011;31949;51.404;-0.038;2023-11-19T03:28:35;25.98;;;6.45;;
46230;SDS011;31949;51.404;-0.038;2023-11-19T03:31:06;26.33;;;5.70;;
46230;SDS011;31949;51.404;-0.038;2023-11-19T03:33:36;26.67;;;7.18;;
46230;SDS011;31949;51.404;-0.038;2023-11-19T03:36:04;23.10;;;6.00;;
46230;SDS011;31949;51.404;-0.038;2023-11-19T03:38:32;29.30;;;5.82;;
46230;SDS011;31949;51.404;-0.038;2023-11-19T03:40:59;28.88;;;5.57;;
46230;SDS011;31949;51.404;-0.038;2023-11-19T03:43:26;25.33;;;6.43;;
46230;SDS011;31949;51.404;-0.038;2023-11-19T03:45:54;27.58;;;6.40;;
46230;SDS011;31949;51.404;-0.038;2023-11-19T03:48:21;19.40;;;5.78;;
46230;SDS011;31949;51.404;-0.038;2023-11-19T03:50:49;23.90;;;5.60;;
46230;SDS011;31949;51.404;-0.038;2023-11-19T03:53:16;38.05;;;7.22;;
46230;SDS011;31949;51.404;-0.038;2023-11-19T03:55:45;22.52;;;5.13;;
46230;SDS011;31949;51.404;-0.038;2023-11-19T03:58:12;28.73;;;6.97;;
46230;SDS011;31949;51.404;-0.038;2023-11-19T04:00:39;29.77;;;5.38;;
46230;SDS011;31949;51.404;-0.038;2023-11-19T04:03:07;22.05;;;5.88;;
46230;SDS011;31949;51.404;-0.038;2023-11-19T04:05:34;27.40;;;7.30;;
46230;SDS011;31949;51.404;-0.038;2023-11-19T04:08:01;28.20;;;6.00;;
46230;SDS011;31949;51.404;-0.038;2023-11-19T04:10:28;27.83;;;5.97;;
46230;SDS011;31949;51.404;-0.038;2023-11-19T04:12:56;28.08;;;6.80;;
46230;SDS011;31949;51.404;-0.038;2023-11-19T04:15:23;21.90;;;5.63;;
46230;SDS011;31949;51.404;-0.038;2023-11-19T04:17:50;30.85;;;6.60;;
46230;SDS011;31949;51.404;-0.038;2023-11-19T04:20:18;28.60;;;7.75;;
46230;SDS011;31949;51.404;-0.038;2023-11-19T04:22:45;23.92;;;6.20;;
46230;SDS011;31949;51.404;-0.038;2023-11-19T04:25:13;32.20;;;6.93;;
46230;SDS011;31949;51.404;-0.038;2023-11-19T04:27:42;28.02;;;7.20;;
46230;SDS011;31949;51.404;-0.038;2023-11-19T04:30:09;20.40;;;5.65;;
46230;SDS011;31949;51.404;-0.038;2023-11-19T04:32:38;20.55;;;6.03;;
46230;SDS011;31949;51.404;-0.038;2023-11-19T04:35:05;26.92;;;5.82;;
46230;SDS011;31949;51.404;-0.038;2023-11-19T04:37:33;31.05;;;6.75;;
46230;SDS011;31949;51.404;-0.038;2023-11-19T04:40:01;24.30;;;5.35;;
46230;SDS011;31949;51.404;-0.038;2023-11-19T04:42:29;27.83;;;6.82;;
46230;SDS011;31949;51.404;-0.038;2023-11-19T04:44:58;24.67;;;5.97;;
46230;SDS011;31949;51.404;-0.038;2023-11-19T04:47:25;30.40;;;7.80;;
46230;SDS011;31949;51.404;-0.038;2023-11-19T04:49:53;35.75;;;7.43;;
46230;SDS011;31949;51.404;-0.038;2023-11-19T04:52:20;26.55;;;6.15;;
46230;SDS011;31949;51.404;-0.038;2023-11-19T04:54:47;34.33;;;7.18;;
46230;SDS011;31949;51.404;-0.038;2023-11-19T04:57:14;19.98;;;4.95;;
46230;SDS011;31949;51.404;-0.038;2023-11-19T04:59:42;24.40;;;6.40;;
46230;SDS011;31949;51.404;-0.038;2023-11-19T05:02:09;30.10;;;7.50;;
46230;SDS011;31949;51.404;-0.038;2023-11-19T05:04:36;22.88;;;6.35;;
46230;SDS011;31949;51.404;-0.038;2023-11-19T05:07:07;34.28;;;6.93;;
46230;SDS011;31949;51.404;-0.038;2023-11-19T05:09:34;25.95;;;5.63;;
46230;SDS011;31949;51.404;-0.038;2023-11-19T05:12:01;31.23;;;6.95;;
46230;SDS011;31949;51.404;-0.038;2023-11-19T05:14:29;31.42;;;6.07;;
46230;SDS011;31949;51.404;-0.038;2023-11-19T05:16:56;29.77;;;6.78;;
46230;SDS011;31949;51.404;-0.038;2023-11-19T05:19:23;27.83;;;7.05;;
46230;SDS011;31949;51.404;-0.038;2023-11-19T05:21:51;26.67;;;6.03;;
46230;SDS011;31949;51.404;-0.038;2023-11-19T05:24:19;27.65;;;5.70;;
46230;SDS011;31949;51.404;-0.038;2023-11-19T05:26:46;16.40;;;5.10;;
46230;SDS011;31949;51.404;-0.038;2023-11-19T05:29:13;24.30;;;5.57;;
46230;SDS011;31949;51.404;-0.038;2023-11-19T05:31:41;24.15;;;5.82;;
46230;SDS011;31949;51.404;-0.038;2023-11-19T05:34:10;27.35;;;5.03;;
46230;SDS011;31949;51.404;-0.038;2023-11-19T05:36:38;23.35;;;5.60;;
46230;SDS011;31949;51.404;-0.038;2023-11-19T05:39:06;30.15;;;6.72;;
46230;SDS011;31949;51.404;-0.038;2023-11-19T05:41:33;25.25;;;5.45;;
46230;SDS011;31949;51.404;-0.038;2023-11-19T05:44:00;25.67;;;6.05;;
46230;SDS011;31949;51.404;-0.038;2023-11-19T05:46:28;28.58;;;7.05;;
46230;SDS011;31949;51.404;-0.038;2023-11-19T05:48:55;29.35;;;7.18;;
46230;SDS011;31949;51.404;-0.038;2023-11-19T05:51:23;20.27;;;4.60;;
46230;SDS011;31949;51.404;-0.038;2023-11-19T05:53:51;27.60;;;6.00;;
46230;SDS011;31949;51.404;-0.038;2023-11-19T05:56:19;29.35;;;6.00;;
46230;SDS011;31949;51.404;-0.038;2023-11-19T05:58:48;33.08;;;6.60;;
46230;SDS011;31949;51.404;-0.038;2023-11-19T06:01:16;22.05;;;5.88;;
46230;SDS011;31949;51.404;-0.038;2023-11-19T06:03:44;31.23;;;6.45;;
46230;SDS011;31949;51.404;-0.038;2023-11-19T06:06:16;25.80;;;5.70;;
46230;SDS011;31949;51.404;-0.038;2023-11-19T06:08:43;33.67;;;7.15;;
46230;SDS011;31949;51.404;-0.038;2023-11-19T06:11:11;35.03;;;6.68;;
46230;SDS011;31949;51.404;-0.038;2023-11-19T06:13:41;27.98;;;5.60;;
46230;SDS011;31949;51.404;-0.038;2023-11-19T06:16:09;27.33;;;5.55;;
46230;SDS011;31949;51.404;-0.038;2023-11-19T06:18:37;21.50;;;4.57;;
46230;SDS011;31949;51.404;-0.038;2023-11-19T06:21:04;23.02;;;5.63;;
46230;SDS011;31949;51.404;-0.038;2023-11-19T06:23:32;28.77;;;6.78;;
46230;SDS011;31949;51.404;-0.038;2023-11-19T06:25:59;31.58;;;6.82;;
46230;SDS011;31949;51.404;-0.038;2023-11-19T06:28:27;31.63;;;6.18;;
46230;SDS011;31949;51.404;-0.038;2023-11-19T06:30:54;26.17;;;6.15;;
46230;SDS011;31949;51.404;-0.038;2023-11-19T06:33:21;28.17;;;5.70;;
46230;SDS011;31949;51.404;-0.038;2023-11-19T06:35:48;22.52;;;6.80;;
46230;SDS011;31949;51.404;-0.038;2023-11-19T06:38:16;30.15;;;6.57;;
46230;SDS011;31949;51.404;-0.038;2023-11-19T06:40:43;32.88;;;5.97;;
46230;SDS011;31949;51.404;-0.038;2023-11-19T06:43:10;19.35;;;4.45;;
46230;SDS011;31949;51.404;-0.038;2023-11-19T06:45:37;23.40;;;4.93;;
46230;SDS011;31949;51.404;-0.038;2023-11-19T06:48:05;27.00;;;6.35;;
46230;SDS011;31949;51.404;-0.038;2023-11-19T06:50:32;26.58;;;5.35;;
46230;SDS011;31949;51.404;-0.038;2023-11-19T06:53:00;18.38;;;5.43;;
46230;SDS011;31949;51.404;-0.038;2023-11-19T06:55:27;26.80;;;6.22;;
46230;SDS011;31949;51.404;-0.038;2023-11-19T06:57:54;25.30;;;4.88;;
46230;SDS011;31949;51.404;-0.038;2023-11-19T07:00:22;32.28;;;6.32;;
46230;SDS011;31949;51.404;-0.038;2023-11-19T07:02:49;25.23;;;5.93;;
46230;SDS011;31949;51.404;-0.038;2023-11-19T07:05:17;15.30;;;5.32;;
46230;SDS011;31949;51.404;-0.038;2023-11-19T07:07:45;18.25;;;4.40;;
46230;SDS011;31949;51.404;-0.038;2023-11-19T07:10:13;26.75;;;5.90;;
46230;SDS011;31949;51.404;-0.038;2023-11-19T07:12:40;19.10;;;5.00;;
46230;SDS011;31949;51.404;-0.038;2023-11-19T07:15:08;23.55;;;5.88;;
46230;SDS011;31949;51.404;-0.038;2023-11-19T07:17:36;23.95;;;7.25;;
46230;SDS011;31949;51.404;-0.038;2023-11-19T07:20:03;23.83;;;5.45;;
46230;SDS011;31949;51.404;-0.038;2023-11-19T07:22:31;25.73;;;5.85;;
46230;SDS011;31949;51.404;-0.038;2023-11-19T07:24:58;15.20;;;5.55;;
46230;SDS011;31949;51.404;-0.038;2023-11-19T07:27:26;20.70;;;4.50;;
46230;SDS011;31949;51.404;-0.038;2023-11-19T07:29:54;18.02;;;4.82;;
46230;SDS011;31949;51.404;-0.038;2023-11-19T07:32:21;23.20;;;5.13;;
46230;SDS011;31949;51.404;-0.038;2023-11-19T07:34:48;15.18;;;3.40;;
46230;SDS011;31949;51.404;-0.038;2023-11-19T07:37:15;21.92;;;4.95;;
46230;SDS011;31949;51.404;-0.038;2023-11-19T07:39:43;15.95;;;3.95;;
46230;SDS011;31949;51.404;-0.038;2023-11-19T07:42:10;21.50;;;4.15;;
46230;SDS011;31949;51.404;-0.038;2023-11-19T07:44:38;19.95;;;4.60;;
46230;SDS011;31949;51.404;-0.038;2023-11-19T07:47:05;13.05;;;3.92;;
46230;SDS011;31949;51.404;-0.038;2023-11-19T07:49:32;23.05;;;5.22;;
46230;SDS011;31949;51.404;-0.038;2023-11-19T07:51:59;16.27;;;4.15;;
46230;SDS011;31949;51.404;-0.038;2023-11-19T07:54:27;15.88;;;5.13;;
46230;SDS011;31949;51.404;-0.038;2023-11-19T07:56:54;16.67;;;3.55;;
46230;SDS011;31949;51.404;-0.038;2023-11-19T07:59:22;14.25;;;3.78;;
46230;SDS011;31949;51.404;-0.038;2023-11-19T08:01:49;20.45;;;4.47;;
46230;SDS011;31949;51.404;-0.038;2023-11-19T08:04:16;22.80;;;4.45;;
46230;SDS011;31949;51.404;-0.038;2023-11-19T08:06:43;21.92;;;4.45;;
46230;SDS011;31949;51.404;-0.038;2023-11-19T08:09:12;19.27;;;4.63;;
46230;SDS011;31949;51.404;-0.038;2023-11-19T08:11:41;21.80;;;4.10;;
46230;SDS011;31949;51.404;-0.038;2023-11-19T08:14:08;31.23;;;5.80;;
46230;SDS011;31949;51.404;-0.038;2023-11-19T08:16:36;17.85;;;3.65;;
46230;SDS011;31949;51.404;-0.038;2023-11-19T08:19:04;17.85;;;4.82;;
46230;SDS011;31949;51.404;-0.038;2023-11-19T08:21:31;16.88;;;5.00;;
46230;SDS011;31949;51.404;-0.038;2023-11-19T08:23:59;19.38;;;4.20;;
46230;SDS011;31949;51.404;-0.038;2023-11-19T08:26:26;17.60;;;3.75;;
46230;SDS011;31949;51.404;-0.038;2023-11-19T08:28:53;17.98;;;4.00;;
46230;SDS011;31949;51.404;-0.038;2023-11-19T08:31:20;14.73;;;3.22;;
46230;SDS011;31949;51.404;-0.038;2023-11-19T08:33:48;12.68;;;3.95;;
46230;SDS011;31949;51.404;-0.038;2023-11-19T08:36:15;20.05;;;5.30;;
46230;SDS011;31949;51.404;-0.038;2023-11-19T08:38:46;17.50;;;4.68;;
46230;SDS011;31949;51.404;-0.038;2023-11-19T08:41:15;14.18;;;3.65;;
46230;SDS011;31949;51.404;-0.038;2023-11-19T08:43:44;15.50;;;3.50;;
46230;SDS011;31949;51.404;-0.038;2023-11-19T08:46:12;18.42;;;4.40;;
46230;SDS011;31949;51.404;-0.038;2023-11-19T08:48:40;18.08;;;4.43;;
46230;SDS011;31949;51.404;-0.038;2023-11-19T08:51:07;17.70;;;3.85;;
46230;SDS011;31949;51.404;-0.038;2023-11-19T08:53:35;21.58;;;4.97;;
46230;SDS011;31949;51.404;-0.038;2023-11-19T08:56:02;14.50;;;4.10;;
46230;SDS011;31949;51.404;-0.038;2023-11-19T08:58:30;18.00;;;4.70;;
46230;SDS011;31949;51.404;-0.038;2023-11-19T09:00:58;18.30;;;4.32;;
46230;SDS011;31949;51.404;-0.038;2023-11-19T09:03:25;20.48;;;5.65;;
46230;SDS011;31949;51.404;-0.038;2023-11-19T09:05:53;16.80;;;4.63;;
46230;SDS011;31949;51.404;-0.038;2023-11-19T09:08:21;30.33;;;4.63;;
46230;SDS011;31949;51.404;-0.038;2023-11-19T09:10:48;23.42;;;4.88;;
46230;SDS011;31949;51.404;-0.038;2023-11-19T09:13:15;31.48;;;6.68;;
46230;SDS011;31949;51.404;-0.038;2023-11-19T09:15:42;15.57;;;4.10;;
46230;SDS011;31949;51.404;-0.038;2023-11-19T09:18:10;21.95;;;4.85;;
46230;SDS011;31949;51.404;-0.038;2023-11-19T09:20:37;16.25;;;5.10;;
46230;SDS011;31949;51.404;-0.038;2023-11-19T09:23:06;22.25;;;5.40;;
46230;SDS011;31949;51.404;-0.038;2023-11-19T09:25:34;25.80;;;6.15;;
46230;SDS011;31949;51.404;-0.038;2023-11-19T09:28:04;26.60;;;5.68;;
46230;SDS011;31949;51.404;-0.038;2023-11-19T09:30:31;22.60;;;5.45;;
46230;SDS011;31949;51.404;-0.038;2023-11-19T09:33:01;22.75;;;6.18;;
46230;SDS011;31949;51.404;-0.038;2023-11-19T09:35:28;17.10;;;3.90;;
46230;SDS011;31949;51.404;-0.038;2023-11-19T09:37:56;16.70;;;4.25;;
46230;SDS011;31949;51.404;-0.038;2023-11-19T09:40:23;18.00;;;5.28;;
46230;SDS011;31949;51.404;-0.038;2023-11-19T09:42:50;24.02;;;5.25;;
46230;SDS011;31949;51.404;-0.038;2023-11-19T09:45:17;23.35;;;5.05;;
46230;SDS011;31949;51.404;-0.038;2023-11-19T09:47:48;25.85;;;5.53;;
46230;SDS011;31949;51.404;-0.038;2023-11-19T09:50:19;23.63;;;6.10;;
46230;SDS011;31949;51.404;-0.038;2023-11-19T09:52:47;20.08;;;5.07;;
46230;SDS011;31949;51.404;-0.038;2023-11-19T09:55:15;18.48;;;4.82;;
46230;SDS011;31949;51.404;-0.038;2023-11-19T09:57:42;18.05;;;4.38;;
46230;SDS011;31949;51.404;-0.038;2023-11-19T10:00:11;18.67;;;4.80;;
46230;SDS011;31949;51.404;-0.038;2023-11-19T10:02:42;16.88;;;3.72;;
46230;SDS011;31949;51.404;-0.038;2023-11-19T10:05:13;15.38;;;4.18;;
46230;SDS011;31949;51.404;-0.038;2023-11-19T10:07:42;22.90;;;4.70;;
46230;SDS011;31949;51.404;-0.038;2023-11-19T10:10:11;14.07;;;4.20;;
46230;SDS011;31949;51.404;-0.038;2023-11-19T10:12:45;20.85;;;4.53;;
46230;SDS011;31949;51.404;-0.038;2023-11-19T10:15:22;19.15;;;5.13;;
46230;SDS011;31949;51.404;-0.038;2023-11-19T10:17:51;19.10;;;4.60;;
46230;SDS011;31949;51.404;-0.038;2023-11-19T10:20:25;18.45;;;4.05;;
46230;SDS011;31949;51.404;-0.038;2023-11-19T10:22:55;15.88;;;4.60;;
46230;SDS011;31949;51.404;-0.038;2023-11-19T10:25:26;12.30;;;4.47;;
46230;SDS011;31949;51.404;-0.038;2023-11-19T10:27:55;19.48;;;4.45;;
46230;SDS011;31949;51.404;-0.038;2023-11-19T10:30:24;12.98;;;3.40;;
46230;SDS011;31949;51.404;-0.038;2023-11-19T10:33:12;21.25;;;5.13;;
46230;SDS011;31949;51.404;-0.038;2023-11-19T10:35:51;13.50;;;4.15;;
46230;SDS011;31949;51.404;-0.038;2023-11-19T10:38:28;14.18;;;3.63;;
46230;SDS011;31949;51.404;-0.038;2023-11-19T10:40:57;12.95;;;3.30;;
46230;SDS011;31949;51.404;-0.038;2023-11-19T10:43:25;14.13;;;4.13;;
46230;SDS011;31949;51.404;-0.038;2023-11-19T10:45:54;13.00;;;3.38;;
46230;SDS011;31949;51.404;-0.038;2023-11-19T10:48:36;21.38;;;4.03;;
46230;SDS011;31949;51.404;-0.038;2023-11-19T10:51:04;14.15;;;3.47;;
46230;SDS011;31949;51.404;-0.038;2023-11-19T10:53:38;11.85;;;3.10;;
46230;SDS011;31949;51.404;-0.038;2023-11-19T10:56:06;10.48;;;2.80;;
46230;SDS011;31949;51.404;-0.038;2023-11-19T10:58:38;16.58;;;3.78;;
46230;SDS011;31949;51.404;-0.038;2023-11-19T11:01:54;12.70;;;4.00;;
46230;SDS011;31949;51.404;-0.038;2023-11-19T11:04:14;17.35;;;4.25;;
46230;SDS011;31949;51.404;-0.038;2023-11-19T11:06:42;18.13;;;3.38;;
46230;SDS011;31949;51.404;-0.038;2023-11-19T11:09:10;16.17;;;4.00;;
46230;SDS011;31949;51.404;-0.038;2023-11-19T11:11:40;13.13;;;3.13;;
46230;SDS011;31949;51.404;-0.038;2023-11-19T11:14:11;15.90;;;3.45;;
46230;SDS011;31949;51.404;-0.038;2023-11-19T11:16:42;11.95;;;3.50;;
46230;SDS011;31949;51.404;-0.038;2023-11-19T11:19:10;13.20;;;3.80;;
46230;SDS011;31949;51.404;-0.038;2023-11-19T11:21:40;15.55;;;4.25;;
46230;SDS011;31949;51.404;-0.038;2023-11-19T11:29:37;13.45;;;3.45;;
46230;SDS011;31949;51.404;-0.038;2023-11-19T11:32:35;16.10;;;4.13;;
46230;SDS011;31949;51.404;-0.038;2023-11-19T11:38:01;19.83;;;4.10;;
46230;SDS011;31949;51.404;-0.038;2023-11-19T11:40:33;11.30;;;3.42;;
46230;SDS011;31949;51.404;-0.038;2023-11-19T11:43:01;10.82;;;2.95;;
46230;SDS011;31949;51.404;-0.038;2023-11-19T11:45:36;16.90;;;3.47;;
46230;SDS011;31949;51.404;-0.038;2023-11-19T11:48:11;10.98;;;3.20;;
46230;SDS011;31949;51.404;-0.038;2023-11-19T11:50:49;14.80;;;4.15;;
46230;SDS011;31949;51.404;-0.038;2023-11-19T11:53:21;17.73;;;4.68;;
46230;SDS011;31949;51.404;-0.038;2023-11-19T11:58:19;12.57;;;3.28;;
46230;SDS011;31949;51.404;-0.038;2023-11-19T12:00:53;11.80;;;3.42;;
46230;SDS011;31949;51.404;-0.038;2023-11-19T12:03:23;11.13;;;3.00;;
46230;SDS011;31949;51.404;-0.038;2023-11-19T12:05:53;9.10;;;3.45;;
46230;SDS011;31949;51.404;-0.038;2023-11-19T12:08:24;15.52;;;4.60;;
46230;SDS011;31949;51.404;-0.038;2023-11-19T12:13:21;18.30;;;4.80;;
46230;SDS011;31949;51.404;-0.038;2023-11-19T12:18:26;9.85;;;3.50;;
46230;SDS011;31949;51.404;-0.038;2023-11-19T12:20:55;12.55;;;3.35;;
46230;SDS011;31949;51.404;-0.038;2023-11-19T12:23:23;13.85;;;3.92;;
46230;SDS011;31949;51.404;-0.038;2023-11-19T12:25:50;15.23;;;3.22;;
46230;SDS011;31949;51.404;-0.038;2023-11-19T12:28:18;18.27;;;3.90;;
46230;SDS011;31949;51.404;-0.038;2023-11-19T12:30:45;11.07;;;2.67;;
46230;SDS011;31949;51.404;-0.038;2023-11-19T12:33:14;11.13;;;3.30;;
46230;SDS011;31949;51.404;-0.038;2023-11-19T12:35:42;10.65;;;2.83;;
46230;SDS011;31949;51.404;-0.038;2023-11-19T12:38:19;16.05;;;3.42;;
46230;SDS011;31949;51.404;-0.038;2023-11-19T12:41:11;16.20;;;3.75;;
46230;SDS011;31949;51.404;-0.038;2023-11-19T12:43:39;10.02;;;2.97;;
46230;SDS011;31949;51.404;-0.038;2023-11-19T12:46:22;10.95;;;3.28;;
46230;SDS011;31949;51.404;-0.038;2023-11-19T12:48:50;12.45;;;3.00;;
46230;SDS011;31949;51.404;-0.038;2023-11-19T12:51:18;11.73;;;3.45;;
46230;SDS011;31949;51.404;-0.038;2023-11-19T12:53:47;13.00;;;3.15;;
46230;SDS011;31949;51.404;-0.038;2023-11-19T12:56:16;8.73;;;2.45;;
46230;SDS011;31949;51.404;-0.038;2023-11-19T12:58:43;14.60;;;3.13;;
46230;SDS011;31949;51.404;-0.038;2023-11-19T13:01:14;12.60;;;3.53;;
46230;SDS011;31949;51.404;-0.038;2023-11-19T13:03:48;13.57;;;3.47;;
46230;SDS011;31949;51.404;-0.038;2023-11-19T13:06:16;16.20;;;3.20;;
46230;SDS011;31949;51.404;-0.038;2023-11-19T13:08:44;14.88;;;3.25;;
46230;SDS011;31949;51.404;-0.038;2023-11-19T13:11:34;10.55;;;3.30;;
46230;SDS011;31949;51.404;-0.038;2023-11-19T13:14:03;11.95;;;2.40;;
46230;SDS011;31949;51.404;-0.038;2023-11-19T13:16:32;15.85;;;4.38;;
46230;SDS011;31949;51.404;-0.038;2023-11-19T13:18:59;8.55;;;3.25;;
46230;SDS011;31949;51.404;-0.038;2023-11-19T13:21:27;10.38;;;3.03;;
46230;SDS011;31949;51.404;-0.038;2023-11-19T13:23:56;8.70;;;2.58;;
46230;SDS011;31949;51.404;-0.038;2023-11-19T13:26:24;10.63;;;2.75;;
46230;SDS011;31949;51.404;-0.038;2023-11-19T13:28:51;11.85;;;2.75;;
46230;SDS011;31949;51.404;-0.038;2023-11-19T13:31:18;5.78;;;1.88;;
46230;SDS011;31949;51.404;-0.038;2023-11-19T13:33:45;14.82;;;3.65;;
46230;SDS011;31949;51.404;-0.038;2023-11-19T13:36:13;9.18;;;2.30;;
46230;SDS011;31949;51.404;-0.038;2023-11-19T13:38:43;9.50;;;2.95;;
46230;SDS011;31949;51.404;-0.038;2023-11-19T13:41:13;9.63;;;3.22;;
46230;SDS011;31949;51.404;-0.038;2023-11-19T13:43:41;8.68;;;1.95;;
46230;SDS011;31949;51.404;-0.038;2023-11-19T13:46:08;9.65;;;2.53;;
46230;SDS011;31949;51.404;-0.038;2023-11-19T13:48:37;9.52;;;2.20;;
46230;SDS011;31949;51.404;-0.038;2023-11-19T13:51:05;10.05;;;2.97;;
46230;SDS011;31949;51.404;-0.038;2023-11-19T13:53:32;9.63;;;2.08;;
46230;SDS011;31949;51.404;-0.038;2023-11-19T13:56:17;6.53;;;2.25;;
46230;SDS011;31949;51.404;-0.038;2023-11-19T13:58:45;9.88;;;2.42;;
46230;SDS011;31949;51.404;-0.038;2023-11-19T14:01:12;9.80;;;2.78;;
46230;SDS011;31949;51.404;-0.038;2023-11-19T14:03:40;8.27;;;2.67;;
46230;SDS011;31949;51.404;-0.038;2023-11-19T14:06:09;6.85;;;2.00;;
46230;SDS011;31949;51.404;-0.038;2023-11-19T14:08:36;9.93;;;2.22;;
46230;SDS011;31949;51.404;-0.038;2023-11-19T14:11:04;8.63;;;1.83;;
46230;SDS011;31949;51.404;-0.038;2023-11-19T14:13:32;6.85;;;2.58;;
46230;SDS011;31949;51.404;-0.038;2023-11-19T14:15:59;9.70;;;2.05;;
46230;SDS011;31949;51.404;-0.038;2023-11-19T14:18:27;8.35;;;1.98;;
46230;SDS011;31949;51.404;-0.038;2023-11-19T14:20:54;5.53;;;1.60;;
46230;SDS011;31949;51.404;-0.038;2023-11-19T14:23:22;6.55;;;1.65;;
46230;SDS011;31949;51.404;-0.038;2023-11-19T14:25:50;8.25;;;2.03;;
46230;SDS011;31949;51.404;-0.038;2023-11-19T14:28:18;8.75;;;2.00;;
46230;SDS011;31949;51.404;-0.038;2023-11-19T14:30:46;3.60;;;1.60;;
46230;SDS011;31949;51.404;-0.038;2023-11-19T14:33:14;5.88;;;1.88;;
46230;SDS011;31949;51.404;-0.038;2023-11-19T14:35:41;7.38;;;2.08;;
46230;SDS011;31949;51.404;-0.038;2023-11-19T14:38:09;5.72;;;1.92;;
46230;SDS011;31949;51.404;-0.038;2023-11-19T14:40:36;7.95;;;1.98;;
46230;SDS011;31949;51.404;-0.038;2023-11-19T14:43:06;7.05;;;1.95;;
46230;SDS011;31949;51.404;-0.038;2023-11-19T14:45:37;6.47;;;1.50;;
46230;SDS011;31949;51.404;-0.038;2023-11-19T14:48:15;10.48;;;2.17;;
46230;SDS011;31949;51.404;-0.038;2023-11-19T14:50:44;8.48;;;2.00;;